Time;durP1;ratioP1;P1;durP2;ratioP2;P2;SDS_P1;SDS_P2;PMS_P1;PMS_P2;Temp;Humidity;BMP_temperature;BMP_pressure;BME280_temperature;BME280_humidity;BME280_pressure;Samples;Min_cycle;Max_cycle;Signal;HPM_P1;HPM_P2
2022/08/05 00:00:47;;;;;;;5.15;2.95;;;;;;;;;;5135263;27;21627;-62
2022/08/05 00:03:14;;;;;;;7.90;3.63;;;;;;;;;;5131346;27;20504;-62
2022/08/05 00:05:42;;;;;;;7.35;3.30;;;;;;;;;;5135997;27;20482;-61
2022/08/05 00:08:08;;;;;;;8.82;3.65;;;;;;;;;;5135107;27;20094;-61
2022/08/05 00:10:34;;;;;;;10.68;4.30;;;;;;;;;;5132431;27;20119;-62
2022/08/05 00:13:01;;;;;;;7.63;3.45;;;;;;;;;;5134911;27;20100;-62
2022/08/05 00:15:27;;;;;;;9.93;3.45;;;;;;;;;;5135252;27;20393;-61
2022/08/05 00:17:53;;;;;;;7.13;3.38;;;;;;;;;;5136280;27;20127;-61
2022/08/05 00:20:19;;;;;;;9.57;4.13;;;;;;;;;;5140518;27;20506;-62
2022/08/05 00:22:45;;;;;;;8.10;3.58;;;;;;;;;;5130579;27;20050;-62
2022/08/05 00:25:11;;;;;;;6.82;3.20;;;;;;;;;;5138981;27;20121;-62
2022/08/05 00:27:38;;;;;;;5.90;3.25;;;;;;;;;;5128101;27;20455;-62
2022/08/05 00:30:04;;;;;;;10.07;3.95;;;;;;;;;;5135339;27;20046;-62
2022/08/05 00:32:31;;;;;;;7.47;3.80;;;;;;;;;;5133480;27;20482;-62
2022/08/05 00:34:57;;;;;;;6.90;3.63;;;;;;;;;;5133846;27;20154;-62
2022/08/05 00:37:23;;;;;;;8.40;4.18;;;;;;;;;;5128855;27;20039;-62
2022/08/05 00:39:49;;;;;;;8.00;3.85;;;;;;;;;;5125553;27;20084;-62
2022/08/05 00:42:15;;;;;;;8.55;3.92;;;;;;;;;;5129910;27;20067;-62
2022/08/05 00:44:42;;;;;;;7.22;3.78;;;;;;;;;;5112497;27;20763;-63
2022/08/05 00:47:08;;;;;;;8.35;3.70;;;;;;;;;;5131821;27;20043;-62
2022/08/05 00:49:34;;;;;;;8.73;4.18;;;;;;;;;;5131731;27;20042;-62
2022/08/05 00:52:00;;;;;;;7.97;4.00;;;;;;;;;;5129787;27;20114;-61
2022/08/05 00:54:27;;;;;;;8.30;4.15;;;;;;;;;;5133168;27;20050;-62
2022/08/05 00:56:53;;;;;;;9.95;4.38;;;;;;;;;;5133353;27;20043;-61
2022/08/05 00:59:19;;;;;;;9.77;4.53;;;;;;;;;;5113345;27;20478;-62
2022/08/05 01:01:45;;;;;;;8.38;4.30;;;;;;;;;;5125692;27;20521;-62
2022/08/05 01:04:11;;;;;;;10.18;4.50;;;;;;;;;;5107508;27;20043;-62
2022/08/05 01:06:37;;;;;;;10.27;4.50;;;;;;;;;;5128311;27;20136;-62
2022/08/05 01:09:05;;;;;;;9.10;4.13;;;;;;;;;;5122399;27;20031;-62
2022/08/05 01:11:33;;;;;;;10.00;4.53;;;;;;;;;;5133924;27;20096;-62
2022/08/05 01:14:02;;;;;;;10.10;4.45;;;;;;;;;;5129929;27;20046;-61
2022/08/05 01:16:32;;;;;;;8.73;4.07;;;;;;;;;;5132491;27;20039;-61
2022/08/05 01:19:02;;;;;;;6.65;4.40;;;;;;;;;;5136041;27;20059;-62
2022/08/05 01:21:44;;;;;;;7.35;4.35;;;;;;;;;;5138703;27;20047;-61
2022/08/05 01:24:13;;;;;;;10.20;4.57;;;;;;;;;;5130693;27;20057;-61
2022/08/05 01:26:43;;;;;;;7.20;4.20;;;;;;;;;;5133879;27;20039;-62
2022/08/05 01:29:18;;;;;;;8.13;4.20;;;;;;;;;;5135483;27;20030;-61
2022/08/05 01:31:47;;;;;;;9.07;4.20;;;;;;;;;;5113541;27;20474;-62
2022/08/05 01:34:19;;;;;;;11.48;4.90;;;;;;;;;;5132164;27;20158;-62
2022/08/05 01:36:49;;;;;;;9.23;4.65;;;;;;;;;;5133556;27;20105;-61
2022/08/05 01:39:15;;;;;;;9.57;4.70;;;;;;;;;;5131062;27;20035;-61
2022/08/05 01:41:42;;;;;;;11.18;4.78;;;;;;;;;;5119696;27;20061;-62
2022/08/05 01:44:09;;;;;;;8.73;4.85;;;;;;;;;;5134348;27;20047;-62
2022/08/05 01:46:35;;;;;;;10.07;4.80;;;;;;;;;;5127432;27;20047;-62
2022/08/05 01:49:03;;;;;;;8.70;4.05;;;;;;;;;;5132733;27;20046;-62
2022/08/05 01:51:31;;;;;;;7.78;4.00;;;;;;;;;;5125355;27;20039;-62
2022/08/05 01:53:58;;;;;;;7.80;4.75;;;;;;;;;;5126294;27;20031;-62
2022/08/05 01:56:26;;;;;;;9.82;4.30;;;;;;;;;;5126271;27;20119;-62
2022/08/05 01:58:53;;;;;;;7.90;4.30;;;;;;;;;;5123926;27;20340;-62
2022/08/05 02:01:20;;;;;;;7.65;4.53;;;;;;;;;;5125965;27;20043;-62
2022/08/05 02:03:47;;;;;;;8.93;4.88;;;;;;;;;;5127264;27;20095;-61
2022/08/05 02:06:13;;;;;;;6.93;4.45;;;;;;;;;;5126843;27;20038;-62
2022/08/05 02:08:40;;;;;;;6.63;4.63;;;;;;;;;;5110239;27;20050;-62
2022/08/05 02:11:08;;;;;;;10.25;4.32;;;;;;;;;;5128114;27;20035;-62
2022/08/05 02:13:38;;;;;;;8.02;3.88;;;;;;;;;;5130452;27;20388;-62
2022/08/05 02:16:10;;;;;;;9.98;4.00;;;;;;;;;;5135692;27;20157;-62
2022/08/05 02:18:40;;;;;;;6.38;3.75;;;;;;;;;;5131913;27;20058;-62
2022/08/05 02:21:17;;;;;;;12.27;4.68;;;;;;;;;;5134133;27;20091;-62
2022/08/05 02:23:44;;;;;;;7.22;3.83;;;;;;;;;;5110753;27;20118;-62
2022/08/05 02:26:12;;;;;;;9.35;3.95;;;;;;;;;;5135704;27;20058;-62
2022/08/05 02:28:40;;;;;;;7.28;3.72;;;;;;;;;;5127079;27;20078;-63
2022/08/05 02:31:08;;;;;;;7.22;3.75;;;;;;;;;;5113321;27;20442;-62
2022/08/05 02:33:37;;;;;;;10.88;4.13;;;;;;;;;;5134403;27;20494;-62
2022/08/05 02:36:04;;;;;;;7.85;4.05;;;;;;;;;;5132186;27;20059;-61
2022/08/05 02:38:32;;;;;;;8.00;4.32;;;;;;;;;;5111089;27;20079;-62
2022/08/05 02:40:58;;;;;;;9.52;4.57;;;;;;;;;;5133532;27;20047;-61
2022/08/05 02:43:26;;;;;;;7.97;4.22;;;;;;;;;;5137711;27;20046;-62
2022/08/05 02:45:52;;;;;;;8.10;4.57;;;;;;;;;;5120748;27;20472;-61
2022/08/05 02:48:19;;;;;;;5.88;3.97;;;;;;;;;;5140474;27;20489;-61
2022/08/05 02:50:47;;;;;;;6.15;3.50;;;;;;;;;;5135668;27;20513;-62
2022/08/05 02:53:14;;;;;;;5.32;3.88;;;;;;;;;;5138203;27;20398;-62
2022/08/05 02:55:41;;;;;;;6.43;4.80;;;;;;;;;;5131642;27;20043;-61
2022/08/05 02:58:07;;;;;;;9.43;4.70;;;;;;;;;;5134360;27;20075;-62
2022/08/05 03:00:34;;;;;;;6.10;4.68;;;;;;;;;;5136247;27;20046;-62
2022/08/05 03:03:01;;;;;;;8.93;4.55;;;;;;;;;;5134541;27;20512;-62
2022/08/05 03:05:27;;;;;;;12.68;4.97;;;;;;;;;;5135179;27;20118;-61
2022/08/05 03:07:54;;;;;;;9.80;5.22;;;;;;;;;;5139785;27;20383;-61
2022/08/05 03:10:21;;;;;;;7.35;4.85;;;;;;;;;;5135988;27;20045;-62
2022/08/05 03:12:48;;;;;;;8.00;5.03;;;;;;;;;;5141087;27;20393;-62
2022/08/05 03:15:14;;;;;;;9.23;4.47;;;;;;;;;;5141913;27;20051;-61
2022/08/05 03:17:40;;;;;;;8.40;4.47;;;;;;;;;;5138322;27;20484;-61
2022/08/05 03:20:07;;;;;;;6.07;4.10;;;;;;;;;;5124188;27;20487;-61
2022/08/05 03:22:33;;;;;;;8.35;4.13;;;;;;;;;;5128706;27;20045;-61
2022/08/05 03:24:59;;;;;;;7.45;4.38;;;;;;;;;;5132508;27;20043;-61
2022/08/05 03:27:26;;;;;;;9.45;5.20;;;;;;;;;;5130806;27;20041;-62
2022/08/05 03:29:52;;;;;;;12.73;4.30;;;;;;;;;;5127946;27;20058;-61
2022/08/05 03:32:19;;;;;;;6.82;4.20;;;;;;;;;;5122127;27;20473;-62
2022/08/05 03:34:45;;;;;;;6.47;4.10;;;;;;;;;;5125044;27;20039;-62
2022/08/05 03:37:11;;;;;;;9.63;3.90;;;;;;;;;;5127117;27;20110;-62
2022/08/05 03:39:37;;;;;;;10.80;4.47;;;;;;;;;;5125392;27;20054;-62
2022/08/05 03:42:04;;;;;;;7.90;4.32;;;;;;;;;;5125844;27;20385;-61
2022/08/05 03:44:30;;;;;;;10.75;4.10;;;;;;;;;;5108922;27;20450;-62
2022/08/05 03:46:56;;;;;;;7.47;4.30;;;;;;;;;;5125049;27;20517;-62
2022/08/05 03:49:22;;;;;;;7.53;3.78;;;;;;;;;;5088253;27;20555;-62
2022/08/05 03:51:56;;;;;;;9.80;4.10;;;;;;;;;;5130846;27;20389;-62
2022/08/05 03:54:22;;;;;;;;;;;;;;;;;;5126416;27;20035;-62
2022/08/05 03:56:48;;;;;;;6.55;3.60;;;;;;;;;;5130386;27;19933;-61
2022/08/05 03:59:19;;;;;;;7.93;3.85;;;;;;;;;;5138024;27;20044;-61
2022/08/05 04:01:46;;;;;;;8.65;3.90;;;;;;;;;;5139194;27;20039;-61
2022/08/05 04:04:13;;;;;;;5.78;3.03;;;;;;;;;;5140602;27;20043;-62
2022/08/05 04:06:40;;;;;;;4.35;3.40;;;;;;;;;;5126919;27;20058;-61
2022/08/05 04:09:06;;;;;;;8.02;3.40;;;;;;;;;;5127247;27;20583;-62
2022/08/05 04:11:34;;;;;;;10.30;3.90;;;;;;;;;;5124392;27;20398;-61
2022/08/05 04:14:01;;;;;;;8.55;3.70;;;;;;;;;;5125848;27;20051;-62
2022/08/05 04:16:27;;;;;;;7.13;3.28;;;;;;;;;;5124962;27;20054;-62
2022/08/05 04:18:53;;;;;;;6.60;3.25;;;;;;;;;;5121448;27;20366;-61
2022/08/05 04:21:20;;;;;;;6.82;3.33;;;;;;;;;;5125371;27;20042;-62
2022/08/05 04:23:46;;;;;;;8.07;4.13;;;;;;;;;;5122160;27;20074;-62
2022/08/05 04:26:14;;;;;;;9.07;4.03;;;;;;;;;;5103453;27;20062;-62
2022/08/05 04:28:40;;;;;;;3.90;2.80;;;;;;;;;;5125197;27;20060;-62
2022/08/05 04:31:06;;;;;;;5.90;3.15;;;;;;;;;;5128704;27;20050;-61
2022/08/05 04:33:33;;;;;;;5.18;3.08;;;;;;;;;;5137217;27;20042;-62
2022/08/05 04:35:59;;;;;;;5.07;3.08;;;;;;;;;;5128016;27;20938;-62
2022/08/05 04:38:25;;;;;;;4.32;3.42;;;;;;;;;;5124271;27;20336;-61
2022/08/05 04:40:51;;;;;;;4.90;3.30;;;;;;;;;;5105318;27;20062;-62
2022/08/05 04:43:17;;;;;;;6.65;3.58;;;;;;;;;;5125708;27;20042;-62
2022/08/05 04:45:43;;;;;;;6.93;3.95;;;;;;;;;;5128637;27;20067;-62
2022/08/05 04:48:11;;;;;;;4.38;3.60;;;;;;;;;;5112464;27;20087;-61
2022/08/05 04:50:39;;;;;;;6.60;3.80;;;;;;;;;;5122931;27;20422;-61
2022/08/05 04:53:05;;;;;;;6.15;4.20;;;;;;;;;;5109745;27;20046;-62
2022/08/05 04:55:31;;;;;;;7.78;3.60;;;;;;;;;;5127856;27;20398;-62
2022/08/05 04:57:57;;;;;;;8.63;3.83;;;;;;;;;;5126977;27;20043;-62
2022/08/05 05:00:24;;;;;;;6.35;3.60;;;;;;;;;;5102513;27;20035;-63
2022/08/05 05:02:50;;;;;;;5.25;3.65;;;;;;;;;;5124583;27;20066;-62
2022/08/05 05:05:16;;;;;;;7.82;3.78;;;;;;;;;;5125479;27;20047;-62
2022/08/05 05:07:43;;;;;;;6.20;4.07;;;;;;;;;;5121644;27;20184;-62
2022/08/05 05:10:09;;;;;;;4.32;3.03;;;;;;;;;;5126868;27;22159;-62
2022/08/05 05:12:35;;;;;;;5.78;3.20;;;;;;;;;;5129304;27;20426;-62
2022/08/05 05:15:01;;;;;;;4.30;3.28;;;;;;;;;;5108729;27;20039;-62
2022/08/05 05:17:27;;;;;;;6.35;3.08;;;;;;;;;;5122258;27;20055;-62
2022/08/05 05:19:54;;;;;;;4.53;3.00;;;;;;;;;;5127567;27;20034;-62
2022/08/05 05:22:21;;;;;;;8.30;4.10;;;;;;;;;;5126666;27;20046;-62
2022/08/05 05:24:47;;;;;;;5.53;3.08;;;;;;;;;;5127779;27;20066;-62
2022/08/05 05:27:13;;;;;;;5.70;3.55;;;;;;;;;;5105630;27;20061;-62
2022/08/05 05:29:39;;;;;;;5.25;3.25;;;;;;;;;;5125010;27;20035;-63
2022/08/05 05:32:06;;;;;;;6.40;3.65;;;;;;;;;;5110687;27;20043;-62
2022/08/05 05:34:32;;;;;;;4.63;3.40;;;;;;;;;;5128829;27;20035;-62
2022/08/05 05:36:58;;;;;;;6.65;3.70;;;;;;;;;;5109838;27;21351;-62
2022/08/05 05:39:24;;;;;;;8.43;4.28;;;;;;;;;;5130950;27;20035;-62
2022/08/05 05:41:50;;;;;;;5.55;3.70;;;;;;;;;;5129521;27;20114;-62
2022/08/05 05:44:16;;;;;;;9.02;3.95;;;;;;;;;;5126576;27;20134;-62
2022/08/05 05:46:43;;;;;;;7.63;3.95;;;;;;;;;;5129535;27;20035;-62
2022/08/05 05:49:09;;;;;;;6.30;3.60;;;;;;;;;;5127953;27;20158;-62
2022/08/05 05:51:35;;;;;;;6.78;3.50;;;;;;;;;;5125911;27;20474;-62
2022/08/05 05:54:01;;;;;;;6.68;3.97;;;;;;;;;;5130068;27;20724;-62
2022/08/05 05:56:28;;;;;;;8.43;3.90;;;;;;;;;;5127301;27;20043;-62
2022/08/05 05:58:54;;;;;;;5.32;3.90;;;;;;;;;;5111559;27;20047;-62
2022/08/05 06:01:20;;;;;;;6.93;3.58;;;;;;;;;;5130991;27;20043;-62
2022/08/05 06:03:46;;;;;;;10.60;3.63;;;;;;;;;;5128445;27;20092;-61
2022/08/05 06:06:13;;;;;;;5.78;3.13;;;;;;;;;;5130486;27;20508;-61
2022/08/05 06:08:39;;;;;;;8.35;3.60;;;;;;;;;;5131321;27;20058;-62
2022/08/05 06:11:05;;;;;;;13.45;3.53;;;;;;;;;;5111279;27;20462;-62
2022/08/05 06:13:32;;;;;;;7.22;3.47;;;;;;;;;;5133728;27;20083;-62
2022/08/05 06:15:58;;;;;;;9.25;2.97;;;;;;;;;;5130154;27;20050;-62
2022/08/05 06:18:24;;;;;;;7.20;3.03;;;;;;;;;;5128478;27;20559;-62
2022/08/05 06:20:50;;;;;;;8.27;2.63;;;;;;;;;;5109903;27;20427;-62
2022/08/05 06:23:16;;;;;;;5.93;2.30;;;;;;;;;;5130407;27;20446;-62
2022/08/05 06:25:42;;;;;;;5.80;2.22;;;;;;;;;;5131717;27;20052;-62
2022/08/05 06:28:09;;;;;;;5.13;2.08;;;;;;;;;;5127745;27;20187;-62
2022/08/05 06:30:35;;;;;;;4.05;1.60;;;;;;;;;;5125923;27;20043;-63
2022/08/05 06:33:01;;;;;;;4.57;1.95;;;;;;;;;;5135208;27;20482;-62
2022/08/05 06:35:27;;;;;;;7.22;2.10;;;;;;;;;;5128669;27;20161;-63
2022/08/05 06:37:53;;;;;;;5.43;1.90;;;;;;;;;;5129591;27;20111;-63
2022/08/05 06:40:20;;;;;;;5.05;1.83;;;;;;;;;;5131077;27;20125;-63
2022/08/05 06:42:46;;;;;;;4.47;1.52;;;;;;;;;;5132138;27;20331;-62
2022/08/05 06:45:13;;;;;;;4.85;1.75;;;;;;;;;;5124977;27;20058;-63
2022/08/05 06:47:39;;;;;;;4.47;1.80;;;;;;;;;;5124911;27;20043;-62
2022/08/05 06:50:05;;;;;;;2.63;1.10;;;;;;;;;;5124374;27;20035;-62
2022/08/05 06:52:31;;;;;;;7.20;1.55;;;;;;;;;;5125698;27;20482;-62
2022/08/05 06:54:58;;;;;;;5.00;1.10;;;;;;;;;;5127876;27;20126;-63
2022/08/05 06:57:24;;;;;;;8.13;1.20;;;;;;;;;;5126957;27;20043;-62
2022/08/05 06:59:50;;;;;;;10.45;1.42;;;;;;;;;;5130113;27;20047;-62
2022/08/05 07:02:16;;;;;;;10.00;1.65;;;;;;;;;;5134253;27;20054;-62
2022/08/05 07:04:42;;;;;;;9.77;1.58;;;;;;;;;;5123610;27;20474;-62
2022/08/05 07:07:09;;;;;;;8.93;1.70;;;;;;;;;;5125420;27;20518;-62
2022/08/05 07:09:35;;;;;;;9.00;1.80;;;;;;;;;;5129024;27;20039;-63
2022/08/05 07:12:01;;;;;;;7.70;1.17;;;;;;;;;;5112099;27;20061;-62
2022/08/05 07:17:12;;;;;;;10.00;1.70;;;;;;;;;;5114795;27;20051;-62
2022/08/05 07:19:38;;;;;;;6.78;1.25;;;;;;;;;;5121590;27;20039;-63
2022/08/05 07:22:05;;;;;;;4.22;0.82;;;;;;;;;;5120449;27;20562;-62
2022/08/05 07:24:31;;;;;;;4.82;1.65;;;;;;;;;;5127687;27;20528;-62
2022/08/05 07:26:57;;;;;;;4.13;1.20;;;;;;;;;;5133394;27;20406;-62
2022/08/05 07:29:23;;;;;;;6.15;1.02;;;;;;;;;;5122087;27;20081;-62
2022/08/05 07:31:49;;;;;;;3.65;1.15;;;;;;;;;;5135248;27;20070;-62
2022/08/05 07:34:15;;;;;;;3.33;0.75;;;;;;;;;;5134456;27;20039;-62
2022/08/05 07:36:42;;;;;;;5.72;0.90;;;;;;;;;;5109995;27;20039;-62
2022/08/05 07:39:08;;;;;;;3.35;0.80;;;;;;;;;;5127958;27;20062;-62
2022/08/05 07:41:35;;;;;;;3.65;0.90;;;;;;;;;;5131804;27;20046;-62
2022/08/05 07:44:02;;;;;;;5.53;0.90;;;;;;;;;;5131825;27;20048;-62
2022/08/05 07:46:29;;;;;;;2.08;0.70;;;;;;;;;;5133605;27;20043;-62
2022/08/05 07:48:56;;;;;;;6.47;1.13;;;;;;;;;;5127198;27;20098;-62
2022/08/05 07:51:22;;;;;;;3.55;0.95;;;;;;;;;;5127739;27;20042;-62
2022/08/05 07:53:48;;;;;;;3.30;0.82;;;;;;;;;;5123665;27;20616;-62
2022/08/05 07:56:15;;;;;;;3.03;0.95;;;;;;;;;;5131847;27;20050;-62
2022/08/05 07:58:41;;;;;;;4.65;1.10;;;;;;;;;;5127670;27;20039;-62
2022/08/05 08:01:07;;;;;;;3.03;0.52;;;;;;;;;;5128902;27;20043;-62
2022/08/05 08:03:33;;;;;;;6.55;0.98;;;;;;;;;;5129448;27;20122;-62
2022/08/05 08:05:59;;;;;;;4.65;0.77;;;;;;;;;;5127507;27;20059;-62
2022/08/05 08:08:26;;;;;;;9.27;1.25;;;;;;;;;;5129012;27;20130;-62
2022/08/05 08:10:54;;;;;;;6.35;0.82;;;;;;;;;;5107909;27;20047;-62
2022/08/05 08:13:20;;;;;;;5.45;1.20;;;;;;;;;;5124122;27;20424;-62
2022/08/05 08:15:46;;;;;;;3.25;0.77;;;;;;;;;;5126099;27;20401;-62
2022/08/05 08:18:12;;;;;;;4.68;0.82;;;;;;;;;;5129708;27;20096;-62
2022/08/05 08:20:39;;;;;;;2.85;1.00;;;;;;;;;;5134012;27;20047;-63
2022/08/05 08:23:06;;;;;;;6.75;1.10;;;;;;;;;;5138090;27;20046;-62
2022/08/05 08:25:33;;;;;;;2.40;0.60;;;;;;;;;;5113883;27;20060;-62
2022/08/05 08:28:00;;;;;;;6.70;1.23;;;;;;;;;;5129908;27;20034;-62
2022/08/05 08:30:26;;;;;;;4.80;0.60;;;;;;;;;;5135927;27;20120;-62
2022/08/05 08:32:52;;;;;;;4.65;0.80;;;;;;;;;;5136111;27;20091;-62
2022/08/05 08:35:19;;;;;;;4.22;0.75;;;;;;;;;;5133448;27;21904;-62
2022/08/05 08:37:45;;;;;;;5.55;0.75;;;;;;;;;;5127842;27;20416;-62
2022/08/05 08:40:12;;;;;;;4.82;1.05;;;;;;;;;;5135639;27;20074;-62
2022/08/05 08:42:38;;;;;;;4.35;0.80;;;;;;;;;;5135238;27;20464;-62
2022/08/05 08:45:05;;;;;;;2.15;0.70;;;;;;;;;;5112049;27;20133;-62
2022/08/05 08:47:31;;;;;;;4.95;0.77;;;;;;;;;;5135119;27;20043;-62
2022/08/05 08:49:58;;;;;;;4.32;0.68;;;;;;;;;;5127085;27;20046;-62
2022/08/05 08:52:28;;;;;;;6.65;0.80;;;;;;;;;;5126226;27;20115;-62
2022/08/05 08:54:55;;;;;;;4.03;0.68;;;;;;;;;;5124426;27;20088;-62
2022/08/05 08:57:22;;;;;;;2.60;0.70;;;;;;;;;;5130541;27;21013;-63
2022/08/05 08:59:49;;;;;;;5.70;0.77;;;;;;;;;;5122755;27;20039;-62
2022/08/05 09:02:18;;;;;;;3.22;0.75;;;;;;;;;;5108960;27;20045;-62
2022/08/05 09:04:45;;;;;;;4.05;0.77;;;;;;;;;;5134625;27;20046;-62
2022/08/05 09:07:11;;;;;;;6.13;0.70;;;;;;;;;;5124469;27;20101;-63
2022/08/05 09:09:37;;;;;;;4.07;0.80;;;;;;;;;;5127566;27;20760;-62
2022/08/05 09:12:05;;;;;;;5.95;0.75;;;;;;;;;;5134090;27;20055;-62
2022/08/05 09:14:31;;;;;;;3.95;0.60;;;;;;;;;;5132887;27;20391;-62
2022/08/05 09:16:59;;;;;;;1.77;0.60;;;;;;;;;;5138752;27;20519;-62
2022/08/05 09:19:25;;;;;;;2.53;0.75;;;;;;;;;;5114236;27;20953;-62
2022/08/05 09:21:51;;;;;;;2.78;0.60;;;;;;;;;;5131716;27;20043;-62
2022/08/05 09:24:18;;;;;;;2.60;0.60;;;;;;;;;;5136279;27;20042;-62
2022/08/05 09:26:47;;;;;;;2.83;0.52;;;;;;;;;;5137308;27;20057;-62
2022/08/05 09:29:13;;;;;;;1.92;0.40;;;;;;;;;;5121867;27;20043;-62
2022/08/05 09:31:42;;;;;;;1.08;0.35;;;;;;;;;;5128265;27;20118;-62
2022/08/05 09:34:09;;;;;;;1.17;0.30;;;;;;;;;;5132098;27;20043;-62
2022/08/05 09:36:39;;;;;;;1.52;0.50;;;;;;;;;;5133967;27;20047;-63
2022/08/05 09:39:07;;;;;;;2.55;0.57;;;;;;;;;;5131457;27;20931;-62
2022/08/05 09:41:33;;;;;;;3.22;0.38;;;;;;;;;;5143293;27;20481;-62
2022/08/05 09:43:59;;;;;;;1.77;0.40;;;;;;;;;;5139172;27;20143;-62
2022/08/05 09:46:33;;;;;;;1.77;0.40;;;;;;;;;;5137636;27;20078;-62
2022/08/05 09:49:03;;;;;;;3.20;0.35;;;;;;;;;;5137669;27;20474;-62
2022/08/05 09:51:37;;;;;;;1.60;0.40;;;;;;;;;;5129850;27;20047;-63
2022/08/05 09:54:06;;;;;;;2.42;0.47;;;;;;;;;;5133044;27;20043;-63
2022/08/05 09:56:33;;;;;;;2.65;0.73;;;;;;;;;;5135756;27;20039;-63
2022/08/05 09:59:00;;;;;;;2.60;0.65;;;;;;;;;;5136490;27;20035;-63
2022/08/05 10:01:27;;;;;;;2.13;0.35;;;;;;;;;;5135308;27;20043;-63
2022/08/05 10:04:09;;;;;;;3.25;0.40;;;;;;;;;;5134124;27;20512;-63
2022/08/05 10:06:35;;;;;;;1.42;0.40;;;;;;;;;;5136525;27;20328;-63
2022/08/05 10:09:10;;;;;;;1.77;0.35;;;;;;;;;;5127656;27;20047;-63
2022/08/05 10:11:36;;;;;;;1.88;0.30;;;;;;;;;;5125605;27;20055;-63
2022/08/05 10:14:22;;;;;;;1.23;0.30;;;;;;;;;;5122436;27;20053;-63
2022/08/05 10:16:49;;;;;;;2.13;0.30;;;;;;;;;;5122731;27;20058;-63
2022/08/05 10:19:15;;;;;;;1.55;0.43;;;;;;;;;;5124553;27;20079;-63
2022/08/05 10:21:42;;;;;;;2.85;0.35;;;;;;;;;;5130168;27;20031;-63
2022/08/05 10:24:11;;;;;;;1.88;0.38;;;;;;;;;;5133312;27;20213;-63
2022/08/05 10:26:40;;;;;;;1.30;0.30;;;;;;;;;;5134840;27;22135;-63
2022/08/05 10:29:07;;;;;;;2.28;0.80;;;;;;;;;;5137207;27;20047;-63
2022/08/05 10:31:33;;;;;;;2.17;0.43;;;;;;;;;;5127434;27;20096;-63
2022/08/05 10:33:59;;;;;;;3.47;0.60;;;;;;;;;;5126622;27;20043;-63
2022/08/05 10:36:25;;;;;;;7.88;1.92;;;;;;;;;;5128133;27;20043;-63
2022/08/05 10:38:55;;;;;;;1.73;0.40;;;;;;;;;;5129542;27;20036;-63
2022/08/05 10:41:22;;;;;;;3.05;0.50;;;;;;;;;;5103059;28;20058;-63
2022/08/05 10:43:59;;;;;;;3.25;0.63;;;;;;;;;;5133506;27;20122;-63
2022/08/05 10:46:42;;;;;;;3.15;0.63;;;;;;;;;;5130193;27;20046;-64
2022/08/05 10:49:08;;;;;;;3.60;0.40;;;;;;;;;;5134685;27;20039;-63
2022/08/05 10:51:43;;;;;;;3.17;0.30;;;;;;;;;;5130869;27;20088;-63
2022/08/05 10:54:09;;;;;;;4.57;0.63;;;;;;;;;;5130074;27;20046;-63
2022/08/05 10:56:44;;;;;;;1.38;0.40;;;;;;;;;;5130684;27;20039;-63
2022/08/05 10:59:10;;;;;;;0.80;0.30;;;;;;;;;;5132369;27;20354;-63
2022/08/05 11:01:40;;;;;;;4.05;0.55;;;;;;;;;;5131361;27;20042;-63
2022/08/05 11:04:14;;;;;;;3.58;0.70;;;;;;;;;;5132726;27;20046;-63
2022/08/05 11:07:05;;;;;;;3.17;0.70;;;;;;;;;;5134360;27;20051;-63
2022/08/05 11:09:49;;;;;;;4.25;0.40;;;;;;;;;;5133405;27;20072;-63
2022/08/05 11:12:25;;;;;;;2.40;0.60;;;;;;;;;;5131707;27;20054;-63
2022/08/05 11:15:07;;;;;;;4.57;0.50;;;;;;;;;;5135389;27;20039;-63
2022/08/05 11:17:37;;;;;;;2.80;0.50;;;;;;;;;;5135406;27;20078;-63
2022/08/05 11:20:29;;;;;;;3.70;0.40;;;;;;;;;;5129050;27;20039;-63
2022/08/05 11:22:55;;;;;;;6.93;0.90;;;;;;;;;;5131349;27;20043;-62
2022/08/05 11:25:28;;;;;;;1.50;0.38;;;;;;;;;;5137180;27;20038;-63
2022/08/05 11:27:54;;;;;;;2.15;0.50;;;;;;;;;;5134368;27;20125;-63
2022/08/05 11:30:20;;;;;;;5.30;0.70;;;;;;;;;;5141939;27;20060;-63
2022/08/05 11:32:47;;;;;;;3.25;0.57;;;;;;;;;;5116476;27;20058;-63
2022/08/05 11:35:32;;;;;;;2.67;0.40;;;;;;;;;;5138181;27;20633;-63
2022/08/05 11:37:59;;;;;;;2.90;0.40;;;;;;;;;;5107508;27;20062;-63
2022/08/05 11:40:43;;;;;;;2.78;0.47;;;;;;;;;;5128825;27;20485;-63
2022/08/05 11:43:19;;;;;;;2.00;0.50;;;;;;;;;;5128799;27;20047;-63
2022/08/05 11:45:46;;;;;;;2.50;0.55;;;;;;;;;;5128511;27;20036;-63
2022/08/05 11:48:12;;;;;;;1.65;0.40;;;;;;;;;;5126356;27;20100;-63
2022/08/05 11:50:40;;;;;;;4.88;0.47;;;;;;;;;;5132297;27;20045;-63
2022/08/05 11:53:06;;;;;;;1.85;0.32;;;;;;;;;;5112476;27;20096;-63
2022/08/05 11:55:33;;;;;;;2.35;0.50;;;;;;;;;;5130274;27;20457;-63
2022/08/05 11:57:59;;;;;;;2.78;0.30;;;;;;;;;;5126894;27;20039;-63
2022/08/05 12:00:27;;;;;;;2.08;0.35;;;;;;;;;;5124406;27;20035;-63
2022/08/05 12:02:53;;;;;;;2.78;0.68;;;;;;;;;;5103198;27;20087;-63
2022/08/05 12:05:26;;;;;;;3.05;0.50;;;;;;;;;;5122777;27;20035;-63
2022/08/05 12:07:56;;;;;;;2.13;0.40;;;;;;;;;;5125158;27;20043;-63
2022/08/05 12:10:25;;;;;;;3.78;0.68;;;;;;;;;;5125051;27;20125;-63
2022/08/05 12:12:52;;;;;;;4.05;0.35;;;;;;;;;;5125382;27;20126;-62
2022/08/05 12:15:19;;;;;;;3.13;0.55;;;;;;;;;;5138247;27;20031;-64
2022/08/05 12:17:46;;;;;;;3.05;0.40;;;;;;;;;;5133047;27;20051;-63
2022/08/05 12:20:12;;;;;;;1.27;0.30;;;;;;;;;;5135893;27;20743;-63
2022/08/05 12:22:38;;;;;;;3.83;0.98;;;;;;;;;;5136426;27;20461;-63
2022/08/05 12:25:05;;;;;;;1.90;0.40;;;;;;;;;;5131902;27;20058;-63
2022/08/05 12:27:31;;;;;;;2.72;0.57;;;;;;;;;;5123170;27;20043;-63
2022/08/05 12:30:01;;;;;;;2.53;0.32;;;;;;;;;;5129923;27;20050;-63
2022/08/05 12:32:28;;;;;;;6.03;0.35;;;;;;;;;;5128521;27;20390;-63
2022/08/05 12:34:55;;;;;;;3.78;0.75;;;;;;;;;;5108295;27;20039;-63
2022/08/05 12:37:21;;;;;;;2.30;0.40;;;;;;;;;;5127418;27;20039;-63
2022/08/05 12:39:47;;;;;;;3.20;0.50;;;;;;;;;;5106891;27;20123;-64
2022/08/05 12:42:16;;;;;;;2.40;0.52;;;;;;;;;;5127901;27;20031;-62
2022/08/05 12:44:43;;;;;;;2.60;0.60;;;;;;;;;;5127953;27;20431;-63
2022/08/05 12:47:09;;;;;;;2.55;0.52;;;;;;;;;;5124477;27;20043;-63
2022/08/05 12:49:40;;;;;;;2.00;0.30;;;;;;;;;;5126086;27;20111;-63
2022/08/05 12:52:11;;;;;;;3.30;0.43;;;;;;;;;;5127653;27;20054;-63
2022/08/05 12:54:37;;;;;;;2.53;0.47;;;;;;;;;;5131153;27;20042;-63
2022/08/05 12:57:04;;;;;;;2.33;0.50;;;;;;;;;;5138361;27;20043;-63
2022/08/05 12:59:32;;;;;;;3.70;0.50;;;;;;;;;;5117062;27;20115;-62
2022/08/05 13:02:00;;;;;;;2.80;0.30;;;;;;;;;;5130855;27;20051;-63
2022/08/05 13:04:27;;;;;;;2.67;0.40;;;;;;;;;;5129105;27;21819;-63
2022/08/05 13:06:56;;;;;;;4.47;0.43;;;;;;;;;;5110937;27;20051;-63
2022/08/05 13:09:22;;;;;;;11.77;1.10;;;;;;;;;;5106402;27;20039;-63
2022/08/05 13:11:49;;;;;;;8.00;1.00;;;;;;;;;;5131137;27;20081;-63
2022/08/05 13:14:17;;;;;;;9.50;1.80;;;;;;;;;;5132974;27;20065;-63
2022/08/05 13:16:44;;;;;;;6.50;1.02;;;;;;;;;;5133100;27;20042;-62
2022/08/05 13:19:12;;;;;;;6.40;0.82;;;;;;;;;;5129222;27;20039;-62
2022/08/05 13:21:39;;;;;;;4.70;0.90;;;;;;;;;;5121609;27;20043;-63
2022/08/05 13:24:05;;;;;;;5.53;0.90;;;;;;;;;;5105997;27;20151;-63
2022/08/05 13:26:31;;;;;;;6.35;1.20;;;;;;;;;;5134718;27;20163;-63
2022/08/05 13:28:58;;;;;;;3.67;0.73;;;;;;;;;;5112290;27;20050;-62
2022/08/05 13:31:24;;;;;;;3.70;0.80;;;;;;;;;;5130951;27;20118;-63
2022/08/05 13:33:50;;;;;;;4.88;0.80;;;;;;;;;;5108523;27;20130;-63
2022/08/05 13:36:17;;;;;;;2.83;0.47;;;;;;;;;;5128686;27;20039;-63
2022/08/05 13:38:43;;;;;;;2.35;0.52;;;;;;;;;;5107179;27;20486;-63
2022/08/05 13:41:10;;;;;;;5.53;0.73;;;;;;;;;;5104699;27;20095;-63
2022/08/05 13:43:36;;;;;;;4.43;0.80;;;;;;;;;;5127804;27;20050;-63
2022/08/05 13:46:02;;;;;;;4.72;0.70;;;;;;;;;;5128705;27;20043;-63
2022/08/05 13:48:29;;;;;;;4.50;0.77;;;;;;;;;;5136063;27;20035;-63
2022/08/05 13:50:55;;;;;;;4.07;0.80;;;;;;;;;;5140242;27;20034;-63
2022/08/05 13:53:21;;;;;;;4.30;0.73;;;;;;;;;;5140047;27;20047;-63
2022/08/05 13:55:47;;;;;;;6.80;1.30;;;;;;;;;;5120410;27;20511;-63
2022/08/05 13:58:13;;;;;;;6.55;1.20;;;;;;;;;;5133139;27;20027;-63
2022/08/05 14:00:40;;;;;;;5.90;1.02;;;;;;;;;;5109182;27;20103;-63
2022/08/05 14:03:06;;;;;;;6.93;1.30;;;;;;;;;;5121416;27;20035;-63
2022/08/05 14:05:32;;;;;;;6.72;1.13;;;;;;;;;;5133322;27;20141;-63
2022/08/05 14:07:58;;;;;;;5.70;0.70;;;;;;;;;;5107960;28;20057;-63
2022/08/05 14:10:25;;;;;;;7.53;0.98;;;;;;;;;;5124170;27;20051;-63
2022/08/05 14:12:51;;;;;;;5.60;0.75;;;;;;;;;;5137299;27;20043;-63
2022/08/05 14:15:18;;;;;;;4.72;0.73;;;;;;;;;;5131295;27;20087;-63
2022/08/05 14:17:44;;;;;;;5.18;1.05;;;;;;;;;;5133391;27;20043;-63
2022/08/05 14:20:11;;;;;;;2.92;0.43;;;;;;;;;;5135002;27;20035;-63
2022/08/05 14:22:37;;;;;;;4.57;0.60;;;;;;;;;;5133383;27;20055;-63
2022/08/05 14:25:04;;;;;;;4.70;0.47;;;;;;;;;;5139106;27;20039;-64
2022/08/05 14:27:30;;;;;;;3.53;0.57;;;;;;;;;;5128059;27;20079;-63
2022/08/05 14:29:58;;;;;;;4.93;0.77;;;;;;;;;;5135542;27;20116;-63
2022/08/05 14:32:24;;;;;;;1.75;0.40;;;;;;;;;;5133256;27;20044;-63
2022/08/05 14:34:50;;;;;;;1.75;0.43;;;;;;;;;;5138690;27;20477;-63
2022/08/05 14:37:17;;;;;;;1.63;0.40;;;;;;;;;;5137347;27;20051;-63
2022/08/05 14:39:43;;;;;;;5.20;0.60;;;;;;;;;;5118693;27;20562;-63
2022/08/05 14:42:09;;;;;;;5.90;0.50;;;;;;;;;;5138349;27;20035;-63
2022/08/05 14:44:35;;;;;;;6.85;0.73;;;;;;;;;;5137204;27;20046;-63
2022/08/05 14:47:01;;;;;;;5.10;0.63;;;;;;;;;;5129259;27;20039;-63